createdAt,value
2023-05-17T00:00:01.518Z,8.45
2023-05-17T00:02:29.537Z,10.23
2023-05-17T00:04:57.405Z,7.90
2023-05-17T00:07:25.187Z,9.05
2023-05-17T00:09:52.864Z,11.15
2023-05-17T00:12:20.670Z,8.20
2023-05-17T00:14:48.732Z,7.68
2023-05-17T00:17:16.856Z,9.30
2023-05-17T00:19:44.582Z,11.57
2023-05-17T00:22:12.345Z,12.13
2023-05-17T00:24:40.094Z,12.18
2023-05-17T00:27:07.714Z,13.25
2023-05-17T00:29:35.507Z,12.60
2023-05-17T00:32:04.773Z,11.07
2023-05-17T00:34:32.707Z,10.15
2023-05-17T00:37:00.751Z,13.10
2023-05-17T00:39:28.386Z,18.42
2023-05-17T00:41:55.836Z,15.43
2023-05-17T00:44:23.359Z,18.33
2023-05-17T00:46:50.917Z,15.63
2023-05-17T00:49:18.462Z,21.33
2023-05-17T00:51:46.037Z,26.65
2023-05-17T00:54:13.713Z,16.48
2023-05-17T00:56:41.197Z,22.20
2023-05-17T00:59:08.675Z,20.60
2023-05-17T01:01:36.123Z,18.83
2023-05-17T01:04:03.711Z,14.88
2023-05-17T01:06:31.612Z,15.45
2023-05-17T01:09:00.177Z,18.23
2023-05-17T01:11:53.130Z,9.45
2023-05-17T01:14:39.189Z,13.23
2023-05-17T01:17:10.515Z,9.65
2023-05-17T01:19:54.767Z,9.45
2023-05-17T01:22:52.044Z,10.52
2023-05-17T01:25:24.609Z,10.90
2023-05-17T01:27:52.105Z,11.32
2023-05-17T01:30:20.047Z,13.75
2023-05-17T01:32:47.819Z,8.65
2023-05-17T01:35:15.765Z,8.27
2023-05-17T01:37:43.239Z,6.10
2023-05-17T01:40:11.040Z,8.63
2023-05-17T01:42:42.613Z,6.43
2023-05-17T01:45:27.056Z,8.10
2023-05-17T01:48:21.799Z,9.63
2023-05-17T01:50:53.046Z,6.93
2023-05-17T01:53:26.303Z,4.82
2023-05-17T01:55:55.644Z,10.65
2023-05-17T01:58:26.388Z,9.10
2023-05-17T02:00:55.905Z,8.68
2023-05-17T02:03:23.465Z,9.82
2023-05-17T02:05:53.428Z,8.63
2023-05-17T02:08:21.111Z,9.00
2023-05-17T02:10:48.664Z,10.13
2023-05-17T02:13:16.236Z,9.70
2023-05-17T02:15:44.624Z,12.10
2023-05-17T02:18:13.123Z,10.63
2023-05-17T02:20:41.366Z,7.25
2023-05-17T02:23:08.836Z,7.72
2023-05-17T02:25:37.448Z,7.85
2023-05-17T02:28:06.520Z,5.40
2023-05-17T02:30:35.990Z,6.18
2023-05-17T02:33:03.461Z,5.57
2023-05-17T02:35:31.161Z,7.97
2023-05-17T02:37:59.120Z,6.03
2023-05-17T02:40:26.587Z,5.70
2023-05-17T02:42:54.606Z,9.07
2023-05-17T02:45:21.978Z,6.65
2023-05-17T02:47:49.720Z,5.43
2023-05-17T02:50:17.527Z,6.40
2023-05-17T02:52:45.162Z,5.97
2023-05-17T02:55:12.624Z,8.07
2023-05-17T02:57:40.099Z,8.63
2023-05-17T03:00:09.034Z,7.47
2023-05-17T03:02:36.870Z,7.53
2023-05-17T03:05:08.599Z,10.35
2023-05-17T03:07:38.859Z,7.80
2023-05-17T03:10:07.512Z,11.13
2023-05-17T03:15:09.382Z,7.88
2023-05-17T03:17:37.743Z,9.20
2023-05-17T03:20:07.900Z,10.57
2023-05-17T03:22:37.071Z,11.73
2023-05-17T03:25:05.929Z,12.25
2023-05-17T03:27:34.391Z,13.65
2023-05-17T03:30:02.224Z,15.23
2023-05-17T03:32:31.678Z,13.75
2023-05-17T03:34:59.454Z,20.33
2023-05-17T03:37:28.026Z,11.15
2023-05-17T03:39:56.083Z,9.70
2023-05-17T03:42:23.789Z,16.65
2023-05-17T03:44:52.429Z,13.85
2023-05-17T03:47:24.003Z,13.85
2023-05-17T03:49:52.204Z,13.55
2023-05-17T03:52:20.371Z,13.18
2023-05-17T03:54:49.339Z,19.17
2023-05-17T03:57:17.400Z,15.70
2023-05-17T03:59:46.035Z,14.40
2023-05-17T04:02:16.849Z,18.95
2023-05-17T04:04:51.221Z,16.52
2023-05-17T04:07:19.590Z,21.48
2023-05-17T04:09:47.689Z,21.83
2023-05-17T04:12:15.341Z,16.52
2023-05-17T04:14:43.114Z,15.80
2023-05-17T04:17:10.801Z,19.23
2023-05-17T04:19:38.581Z,16.02
2023-05-17T04:22:06.220Z,18.48
2023-05-17T04:24:34.550Z,12.77
2023-05-17T04:27:04.892Z,14.02
2023-05-17T04:29:32.808Z,13.65
2023-05-17T04:32:00.677Z,18.08
2023-05-17T04:34:28.348Z,17.63
2023-05-17T04:36:57.542Z,14.95
2023-05-17T04:39:26.134Z,17.83
2023-05-17T04:41:53.772Z,19.60
2023-05-17T04:44:21.689Z,19.42
2023-05-17T04:46:53.300Z,13.88
2023-05-17T04:49:20.843Z,23.88
2023-05-17T04:51:48.548Z,22.70
2023-05-17T04:54:16.370Z,14.27
2023-05-17T04:56:44.254Z,24.38
2023-05-17T04:59:16.528Z,20.25
2023-05-17T05:01:44.186Z,23.60
2023-05-17T05:04:11.854Z,15.00
2023-05-17T05:06:43.128Z,17.90
2023-05-17T05:09:11.067Z,12.52
2023-05-17T05:11:39.794Z,8.43
2023-05-17T05:14:07.742Z,9.23
2023-05-17T05:16:36.621Z,7.18
2023-05-17T05:19:04.472Z,7.68
2023-05-17T05:21:32.994Z,6.97
2023-05-17T05:24:01.083Z,7.55
2023-05-17T05:26:28.882Z,26.77
2023-05-17T05:29:01.118Z,13.35
2023-05-17T05:31:30.878Z,10.77
2023-05-17T05:34:01.303Z,8.77
2023-05-17T05:36:29.740Z,8.95
2023-05-17T05:38:57.649Z,10.68
2023-05-17T05:41:25.428Z,6.22
2023-05-17T05:43:53.052Z,12.90
2023-05-17T05:46:21.374Z,9.93
2023-05-17T05:48:50.150Z,14.88
2023-05-17T05:51:22.724Z,7.20
2023-05-17T05:53:51.946Z,13.70
2023-05-17T05:56:20.597Z,26.92
2023-05-17T05:58:48.175Z,22.00
2023-05-17T06:01:16.482Z,25.10
2023-05-17T06:03:43.935Z,20.92
2023-05-17T06:06:11.575Z,14.00
2023-05-17T06:08:39.487Z,15.02
2023-05-17T06:11:07.313Z,5.70
2023-05-17T06:13:36.679Z,9.43
2023-05-17T06:16:06.066Z,7.05
2023-05-17T06:18:33.841Z,9.30
2023-05-17T06:21:01.462Z,4.32
2023-05-17T06:23:29.333Z,11.02
2023-05-17T06:25:56.932Z,3.58
2023-05-17T06:28:24.532Z,6.97
2023-05-17T06:30:52.178Z,5.93
2023-05-17T06:33:19.821Z,9.93
2023-05-17T06:35:55.549Z,8.60
2023-05-17T06:38:23.740Z,14.13
2023-05-17T06:40:54.782Z,3.00
2023-05-17T06:43:22.657Z,5.80
2023-05-17T06:45:50.560Z,6.72
2023-05-17T06:48:18.307Z,6.10
2023-05-17T06:50:46.069Z,4.75
2023-05-17T06:53:13.882Z,4.57
2023-05-17T06:55:43.345Z,3.83
2023-05-17T06:58:11.094Z,7.38
2023-05-17T07:00:38.982Z,2.28
2023-05-17T07:03:25.461Z,3.30
2023-05-17T07:05:53.068Z,4.18
2023-05-17T07:08:21.168Z,9.25
2023-05-17T07:10:52.184Z,1.48
2023-05-17T07:13:19.988Z,4.43
2023-05-17T07:15:50.435Z,3.40
2023-05-17T07:18:18.256Z,7.45
2023-05-17T07:20:46.549Z,4.82
2023-05-17T07:23:14.160Z,7.40
2023-05-17T07:25:43.220Z,5.57
2023-05-17T07:28:11.289Z,6.40
2023-05-17T07:30:38.810Z,2.88
2023-05-17T07:33:09.762Z,4.25
2023-05-17T07:35:37.884Z,5.95
2023-05-17T07:38:05.632Z,3.25
2023-05-17T07:40:33.410Z,3.95
2023-05-17T07:43:01.157Z,4.90
2023-05-17T07:45:28.994Z,3.47
2023-05-17T07:47:57.219Z,3.33
2023-05-17T07:50:24.990Z,4.25
2023-05-17T07:52:52.774Z,4.18
2023-05-17T07:55:21.446Z,3.88
2023-05-17T07:57:48.850Z,5.28
2023-05-17T08:00:19.628Z,5.25
2023-05-17T08:02:47.343Z,3.55
2023-05-17T08:05:14.853Z,4.78
2023-05-17T08:07:42.538Z,5.35
2023-05-17T08:10:10.756Z,4.65
2023-05-17T08:12:38.662Z,5.95
2023-05-17T08:15:06.688Z,2.70
2023-05-17T08:17:34.452Z,5.78
2023-05-17T08:20:02.186Z,4.50
2023-05-17T08:22:30.029Z,6.03
2023-05-17T08:24:57.721Z,4.38
2023-05-17T08:27:26.993Z,2.65
2023-05-17T08:29:58.441Z,2.20
2023-05-17T08:32:26.485Z,1.50
2023-05-17T08:34:54.657Z,5.80
2023-05-17T08:37:22.250Z,4.97
2023-05-17T08:39:51.521Z,10.35
2023-05-17T08:42:22.517Z,3.92
2023-05-17T08:44:50.552Z,6.43
2023-05-17T08:47:29.835Z,7.20
2023-05-17T08:50:00.509Z,4.90
2023-05-17T08:52:34.707Z,8.43
2023-05-17T08:55:05.331Z,7.45
2023-05-17T08:57:33.884Z,7.95
2023-05-17T09:00:01.771Z,7.05
2023-05-17T09:02:30.210Z,4.40
2023-05-17T09:04:58.175Z,5.57
2023-05-17T09:07:25.888Z,1.77
2023-05-17T09:09:54.211Z,2.45
2023-05-17T09:12:23.531Z,6.05
2023-05-17T09:14:52.987Z,8.13
2023-05-17T09:17:21.575Z,2.10
2023-05-17T09:19:50.450Z,9.77
2023-05-17T09:22:18.387Z,4.93
2023-05-17T09:24:46.908Z,2.85
2023-05-17T09:27:18.263Z,2.38
2023-05-17T09:29:46.433Z,4.93
2023-05-17T09:32:17.988Z,3.28
2023-05-17T09:34:47.075Z,3.75
2023-05-17T09:37:16.088Z,6.25
2023-05-17T09:39:47.067Z,11.93
2023-05-17T09:42:15.252Z,3.97
2023-05-17T09:44:50.088Z,5.93
2023-05-17T09:47:24.934Z,4.95
2023-05-17T09:49:52.718Z,3.70
2023-05-17T09:52:20.971Z,3.50
2023-05-17T09:54:55.394Z,7.55
2023-05-17T09:59:50.843Z,2.42
2023-05-17T10:02:23.446Z,4.30
2023-05-17T10:04:51.633Z,3.20
2023-05-17T10:07:19.910Z,1.73
2023-05-17T10:09:48.908Z,4.68
2023-05-17T10:12:23.717Z,7.40
2023-05-17T10:14:52.969Z,3.58
2023-05-17T10:17:20.810Z,2.78
2023-05-17T10:19:48.851Z,3.00
2023-05-17T10:22:23.283Z,2.20
2023-05-17T10:24:51.876Z,3.83
2023-05-17T10:27:19.962Z,2.20
2023-05-17T10:29:50.252Z,3.75
2023-05-17T10:32:19.598Z,4.97
2023-05-17T10:35:01.525Z,1.95
2023-05-17T10:37:34.354Z,3.25
2023-05-17T10:40:02.113Z,2.60
2023-05-17T10:42:29.770Z,6.50
2023-05-17T10:44:57.404Z,4.40
2023-05-17T10:47:32.134Z,2.95
2023-05-17T10:49:59.724Z,2.95
2023-05-17T10:52:27.564Z,5.82
2023-05-17T10:54:56.518Z,3.03
2023-05-17T10:57:49.849Z,5.13
2023-05-17T11:00:22.025Z,5.20
2023-05-17T11:02:50.894Z,3.20
2023-05-17T11:05:26.162Z,9.13
2023-05-17T11:08:17.361Z,4.60
2023-05-17T11:11:07.676Z,3.25
2023-05-17T11:13:47.583Z,2.17
2023-05-17T11:16:18.094Z,3.15
2023-05-17T11:18:53.317Z,3.60
2023-05-17T11:21:22.552Z,4.68
2023-05-17T11:23:55.464Z,3.90
2023-05-17T11:26:33.192Z,2.47
2023-05-17T11:29:08.290Z,2.55
2023-05-17T11:31:36.822Z,4.22
2023-05-17T11:34:04.677Z,4.78
2023-05-17T11:36:32.448Z,3.35
2023-05-17T11:39:10.803Z,3.90
2023-05-17T11:41:41.668Z,3.05
2023-05-17T11:44:10.186Z,2.92
2023-05-17T11:46:38.018Z,3.85
2023-05-17T11:49:12.119Z,5.32
2023-05-17T11:51:43.283Z,5.63
2023-05-17T11:54:10.893Z,2.70
2023-05-17T11:56:43.675Z,5.97
2023-05-17T11:59:11.790Z,2.92
2023-05-17T12:01:43.779Z,2.97
2023-05-17T12:04:11.490Z,2.20
2023-05-17T12:06:39.636Z,3.33
2023-05-17T12:09:11.379Z,4.47
2023-05-17T12:11:39.659Z,4.22
2023-05-17T12:14:07.393Z,5.15
2023-05-17T12:16:36.363Z,2.60
2023-05-17T12:19:04.197Z,6.38
2023-05-17T12:21:31.961Z,1.73
2023-05-17T12:23:59.582Z,2.17
2023-05-17T12:26:27.171Z,1.65
2023-05-17T12:28:56.554Z,5.35
2023-05-17T12:31:38.639Z,2.55
2023-05-17T12:34:06.756Z,4.85
2023-05-17T12:36:34.966Z,2.35
2023-05-17T12:39:02.658Z,4.15
2023-05-17T12:41:30.329Z,2.08
2023-05-17T12:44:13.760Z,2.63
2023-05-17T12:46:42.987Z,3.47
2023-05-17T12:49:13.931Z,7.65
2023-05-17T12:51:43.441Z,3.35
2023-05-17T12:54:31.329Z,3.85
2023-05-17T12:56:59.147Z,3.70
2023-05-17T12:59:29.183Z,3.45
2023-05-17T13:01:57.641Z,2.78
2023-05-17T13:04:32.831Z,3.33
2023-05-17T13:07:02.443Z,3.65
2023-05-17T13:09:31.138Z,4.57
2023-05-17T13:11:59.622Z,2.55
2023-05-17T13:14:44.389Z,4.05
2023-05-17T13:17:18.499Z,2.67
2023-05-17T13:19:46.300Z,7.88
2023-05-17T13:22:15.522Z,3.35
2023-05-17T13:24:43.568Z,6.70
2023-05-17T13:27:11.298Z,4.72
2023-05-17T13:29:41.805Z,3.22
2023-05-17T13:32:11.733Z,3.40
2023-05-17T13:34:39.541Z,3.92
2023-05-17T13:37:10.303Z,3.67
2023-05-17T13:39:39.989Z,4.68
2023-05-17T13:42:07.974Z,4.18
2023-05-17T13:44:36.409Z,3.70
2023-05-17T13:47:04.288Z,5.78
2023-05-17T13:49:32.887Z,8.75
2023-05-17T13:52:00.905Z,6.10
2023-05-17T13:54:28.541Z,3.03
2023-05-17T13:56:57.624Z,5.53
2023-05-17T13:59:25.493Z,2.75
2023-05-17T14:01:53.845Z,3.83
2023-05-17T14:04:21.598Z,3.47
2023-05-17T14:06:50.286Z,8.73
2023-05-17T14:09:19.078Z,3.65
2023-05-17T14:11:46.684Z,3.90
2023-05-17T14:14:14.239Z,3.85
2023-05-17T14:16:41.929Z,7.72
2023-05-17T14:19:09.732Z,8.10
2023-05-17T14:21:37.826Z,3.67
2023-05-17T14:24:05.641Z,6.30
2023-05-17T14:26:33.240Z,5.57
2023-05-17T14:29:01.077Z,4.35
2023-05-17T14:31:30.301Z,6.63
2023-05-17T14:33:58.982Z,7.43
2023-05-17T14:36:26.639Z,6.05
2023-05-17T14:38:54.325Z,5.60
2023-05-17T14:41:22.652Z,6.75
2023-05-17T14:43:50.219Z,3.22
2023-05-17T14:46:19.932Z,5.07
2023-05-17T14:48:47.594Z,3.17
2023-05-17T14:51:15.137Z,5.50
2023-05-17T14:53:43.128Z,8.43
2023-05-17T14:56:12.159Z,7.20
2023-05-17T14:58:40.521Z,4.03
2023-05-17T15:01:08.390Z,4.18
2023-05-17T15:03:36.178Z,3.60
2023-05-17T15:06:07.084Z,4.78
2023-05-17T15:08:36.070Z,4.88
2023-05-17T15:11:03.613Z,7.97
2023-05-17T15:13:31.574Z,5.80
2023-05-17T15:15:59.484Z,7.72
2023-05-17T15:18:27.128Z,4.22
2023-05-17T15:20:54.593Z,4.82
2023-05-17T15:23:22.128Z,9.77
2023-05-17T15:25:49.901Z,10.07
2023-05-17T15:28:20.000Z,4.90
2023-05-17T15:30:47.898Z,1.88
2023-05-17T15:33:15.931Z,5.60
2023-05-17T15:35:44.619Z,4.72
2023-05-17T15:38:12.210Z,8.98
2023-05-17T15:40:39.850Z,4.47
2023-05-17T15:43:07.358Z,3.83
2023-05-17T15:45:35.015Z,6.43
2023-05-17T15:48:02.677Z,4.47
2023-05-17T15:50:31.132Z,5.47
2023-05-17T15:53:00.163Z,3.25
2023-05-17T15:55:28.910Z,3.22
2023-05-17T15:57:56.689Z,3.40
2023-05-17T16:00:24.294Z,6.60
2023-05-17T16:02:52.074Z,5.20
2023-05-17T16:05:19.760Z,9.68
2023-05-17T16:07:48.175Z,3.97
2023-05-17T16:10:16.173Z,4.47
2023-05-17T16:12:44.086Z,4.57
2023-05-17T16:15:11.742Z,4.18
2023-05-17T16:17:39.569Z,5.03
2023-05-17T16:20:08.164Z,5.60
2023-05-17T16:22:36.069Z,8.50
2023-05-17T16:25:04.959Z,5.68
2023-05-17T16:27:32.670Z,3.95
2023-05-17T16:30:00.220Z,5.25
2023-05-17T16:32:27.912Z,5.45
2023-05-17T16:34:55.585Z,7.70
2023-05-17T16:37:23.176Z,6.25
2023-05-17T16:39:50.746Z,6.30
2023-05-17T16:42:18.833Z,6.95
2023-05-17T16:44:46.418Z,8.60
2023-05-17T16:47:14.079Z,15.77
2023-05-17T16:49:42.550Z,6.00
2023-05-17T16:52:10.327Z,10.07
2023-05-17T16:54:38.763Z,6.43
2023-05-17T16:57:08.450Z,6.30
2023-05-17T16:59:36.289Z,8.02
2023-05-17T17:02:04.479Z,5.47
2023-05-17T17:04:32.238Z,8.35
2023-05-17T17:07:00.313Z,6.13
2023-05-17T17:09:27.952Z,4.25
2023-05-17T17:11:55.582Z,5.45
2023-05-17T17:14:24.349Z,4.40
2023-05-17T17:16:52.006Z,4.50
2023-05-17T17:19:19.871Z,5.78
2023-05-17T17:21:47.620Z,5.72
2023-05-17T17:24:15.407Z,10.20
2023-05-17T17:26:43.106Z,5.57
2023-05-17T17:29:10.665Z,3.97
2023-05-17T17:31:38.307Z,6.22
2023-05-17T17:34:06.046Z,5.78
2023-05-17T17:36:33.647Z,6.18
2023-05-17T17:39:01.223Z,5.60
2023-05-17T17:41:29.022Z,4.18
2023-05-17T17:43:58.674Z,4.50
2023-05-17T17:46:26.413Z,10.98
2023-05-17T17:48:56.599Z,7.05
2023-05-17T17:51:24.469Z,9.35
2023-05-17T17:53:53.820Z,8.80
2023-05-17T17:56:21.604Z,4.32
2023-05-17T17:58:49.166Z,4.47
2023-05-17T18:01:16.788Z,4.38
2023-05-17T18:03:44.387Z,5.72
2023-05-17T18:06:12.074Z,9.55
2023-05-17T18:08:39.888Z,3.50
2023-05-17T18:11:07.515Z,4.47
2023-05-17T18:13:35.233Z,6.00
2023-05-17T18:16:02.927Z,5.15
2023-05-17T18:18:30.637Z,3.55
2023-05-17T18:20:58.660Z,6.03
2023-05-17T18:23:26.361Z,6.40
2023-05-17T18:25:53.997Z,6.70
2023-05-17T18:28:30.095Z,7.47
2023-05-17T18:31:05.947Z,9.80
2023-05-17T18:33:34.976Z,6.63
2023-05-17T18:36:02.612Z,9.20
2023-05-17T18:38:30.422Z,7.82
2023-05-17T18:40:57.971Z,6.00
2023-05-17T18:43:25.731Z,4.85
2023-05-17T18:45:53.329Z,6.63
2023-05-17T18:48:22.311Z,6.32
2023-05-17T18:50:49.883Z,7.03
2023-05-17T18:53:18.084Z,4.65
2023-05-17T18:55:45.882Z,5.47
2023-05-17T18:58:14.093Z,9.85
2023-05-17T19:00:42.240Z,6.22
2023-05-17T19:03:09.827Z,5.55
2023-05-17T19:05:38.013Z,7.95
2023-05-17T19:08:05.845Z,4.65
2023-05-17T19:10:33.459Z,4.13
2023-05-17T19:13:01.264Z,7.40
2023-05-17T19:15:29.162Z,4.18
2023-05-17T19:17:56.936Z,6.45
2023-05-17T19:20:24.765Z,5.05
2023-05-17T19:22:52.384Z,5.22
2023-05-17T19:25:21.800Z,3.95
2023-05-17T19:27:49.373Z,6.25
2023-05-17T19:30:17.191Z,6.97
2023-05-17T19:32:45.488Z,9.35
2023-05-17T19:35:13.056Z,5.75
2023-05-17T19:37:40.706Z,6.93
2023-05-17T19:40:09.014Z,7.63
2023-05-17T19:42:36.763Z,6.13
2023-05-17T19:45:04.644Z,10.55
2023-05-17T19:47:32.815Z,5.65
2023-05-17T19:50:01.477Z,7.05
2023-05-17T19:52:29.225Z,17.30
2023-05-17T19:54:56.916Z,7.00
2023-05-17T19:57:24.743Z,9.45
2023-05-17T19:59:53.006Z,5.82
2023-05-17T20:02:21.078Z,6.53
2023-05-17T20:04:48.782Z,6.03
2023-05-17T20:07:17.502Z,10.63
2023-05-17T20:09:45.063Z,7.18
2023-05-17T20:12:13.145Z,10.60
2023-05-17T20:14:40.748Z,7.07
2023-05-17T20:17:08.385Z,8.88
2023-05-17T20:19:38.318Z,5.95
2023-05-17T20:22:06.306Z,7.63
2023-05-17T20:24:35.033Z,7.68
2023-05-17T20:27:02.782Z,5.00
2023-05-17T20:29:31.033Z,8.88
2023-05-17T20:31:58.868Z,9.45
2023-05-17T20:34:29.222Z,6.80
2023-05-17T20:36:56.905Z,9.95
2023-05-17T20:39:28.047Z,8.00
2023-05-17T20:41:56.961Z,8.02
2023-05-17T20:44:26.007Z,9.55
2023-05-17T20:46:54.566Z,14.32
2023-05-17T20:49:22.103Z,8.40
2023-05-17T20:51:49.671Z,8.60
2023-05-17T20:54:17.095Z,11.45
2023-05-17T20:56:44.651Z,7.20
2023-05-17T20:59:12.004Z,8.23
2023-05-17T21:01:39.841Z,8.02
2023-05-17T21:04:07.283Z,7.88
2023-05-17T21:06:36.426Z,11.38
2023-05-17T21:09:04.009Z,12.45
2023-05-17T21:11:31.468Z,10.13
2023-05-17T21:13:59.903Z,9.70
2023-05-17T21:16:27.462Z,13.70
2023-05-17T21:18:55.260Z,10.93
2023-05-17T21:21:22.725Z,14.60
2023-05-17T21:23:51.201Z,10.68
2023-05-17T21:26:18.723Z,11.63
2023-05-17T21:28:46.218Z,10.57
2023-05-17T21:31:13.787Z,13.00
2023-05-17T21:33:41.270Z,9.63
2023-05-17T21:36:08.710Z,13.27
2023-05-17T21:38:36.142Z,9.52
2023-05-17T21:41:03.570Z,12.55
2023-05-17T21:43:31.568Z,11.70
2023-05-17T21:45:58.972Z,15.40
2023-05-17T21:48:26.466Z,12.00
2023-05-17T21:50:53.916Z,15.55
2023-05-17T21:53:21.618Z,11.85
2023-05-17T21:56:01.291Z,14.80
2023-05-17T21:58:31.458Z,12.88
2023-05-17T22:00:58.882Z,14.25
2023-05-17T22:03:26.370Z,13.38
2023-05-17T22:05:53.830Z,14.00
2023-05-17T22:08:21.333Z,14.25
2023-05-17T22:10:50.246Z,11.93
2023-05-17T22:13:18.489Z,14.60
2023-05-17T22:15:46.153Z,14.80
2023-05-17T22:18:13.911Z,14.73
2023-05-17T22:20:41.439Z,15.52
2023-05-17T22:23:08.931Z,15.88
2023-05-17T22:25:36.486Z,14.52
2023-05-17T22:28:03.986Z,16.75
2023-05-17T22:30:31.721Z,17.92
2023-05-17T22:33:01.046Z,14.70
2023-05-17T22:35:29.041Z,20.42
2023-05-17T22:37:56.517Z,15.93
2023-05-17T22:40:24.015Z,16.10
2023-05-17T22:42:52.042Z,18.13
2023-05-17T22:45:19.545Z,16.83
2023-05-17T22:47:47.049Z,18.98
2023-05-17T22:50:15.935Z,16.45
2023-05-17T22:52:43.582Z,14.25
2023-05-17T22:55:11.329Z,18.58
2023-05-17T22:57:38.878Z,13.20
2023-05-17T23:00:09.134Z,19.70
2023-05-17T23:02:36.903Z,16.60
2023-05-17T23:05:04.779Z,18.73
2023-05-17T23:07:37.166Z,18.88
2023-05-17T23:10:08.905Z,18.23
2023-05-17T23:12:37.901Z,18.27
2023-05-17T23:15:06.226Z,13.48
2023-05-17T23:17:33.880Z,16.38
2023-05-17T23:20:10.492Z,15.43
2023-05-17T23:22:38.989Z,14.20
2023-05-17T23:25:06.793Z,15.50
2023-05-17T23:27:35.395Z,14.77
2023-05-17T23:30:03.101Z,13.10
2023-05-17T23:32:34.983Z,15.32
2023-05-17T23:35:05.880Z,12.75
2023-05-17T23:37:33.746Z,13.32
2023-05-17T23:40:01.866Z,14.88
2023-05-17T23:42:29.606Z,14.27
2023-05-17T23:44:57.908Z,12.88
2023-05-17T23:47:25.852Z,15.55
2023-05-17T23:49:53.304Z,11.25
2023-05-17T23:52:20.995Z,15.65
2023-05-17T23:54:48.561Z,12.73
2023-05-17T23:57:16.411Z,14.07
2023-05-17T23:59:44.030Z,11.75
